Terminal Aerodrome Forecast
Issued by NWS Jacksonville, FL

Home | Current Version | Previous Version | Text Only | Print | Product List | Glossary On
Versions: 1 2 3 4 5 6 7 8 9 10 11 12 13 14 15 16 17 18
000
FTUS42 KJAX 221720
TAFGNV
TAF
KGNV 221720Z 2218/2318 02010KT P6SM SCT040 SCT100 BKN200
     FM230100 02004KT P6SM SCT030 SCT100 BKN200
     FM231400 06012G18KT P6SM SCT040=

USA.gov is the U.S. government's official web portal to all federal, state and local government web resources and services.